Indian Mountain LRRS Airport Utopia Creek US
ICAO: PAIM
IATA:
Category: Medium
Scheduled Services:

Elevation: 1273 ft
TransAlt. 18000 ft.

Airport Communications:
ANCHORAGE CNTR:124.6
CTAF:126.2
FAIRBANKS RDO:122.6

PAIM Zoom In..

If you have problems with the map follow the link
https://www.worldairports.se/pages/airport.php?
ICAO=PAIM

Runways:

(A) RW 06 length 4196 ft width 148 ft
---- / hdg 59

(B) RW 24 length 4196 ft width 148 ft
---- / hdg 239

Location; PAIM
Day. 26 / Time. 02.55 Zulu
* Altimeter: 30.00
* Temperature: -32° c. 25.6°f.
* Wind from: 330° Speed 02 kn.
Dewpoint: -36° c.
Visibility: 10 Statute Miles.
Clouds: Clear (automated report).

PAIM 260255Z AUTO 33002KT 10SM CLR M32/M36 A3000 RMK AO2 SLP238 T13231362 52004


Wind From 330°
Speed 02 kn.

 
 
jpsmedia worldairports.se 2020   terms of use